Time;durP1;ratioP1;P1;durP2;ratioP2;P2;SDS_P1;SDS_P2;PMS_P1;PMS_P2;Temp;Humidity;BMP_temperature;BMP_pressure;BME280_temperature;BME280_humidity;BME280_pressure;Samples;Min_cycle;Max_cycle;Signal;HPM_P1;HPM_P2
2023/03/20 00:02:17;;;;;;;140.65;15.88;;;;;;;;;;4984423;28;20076;-59
2023/03/20 00:04:43;;;;;;;139.13;15.73;;;;;;;;;;4986694;28;20121;-60
2023/03/20 00:07:11;;;;;;;126.77;14.20;;;;;;;;;;4994960;28;20221;-59
2023/03/20 00:09:36;;;;;;;136.05;14.90;;;;;;;;;;4986405;28;20922;-58
2023/03/20 00:12:01;;;;;;;134.57;14.77;;;;;;;;;;4985653;28;20775;-58
2023/03/20 00:14:27;;;;;;;107.35;13.43;;;;;;;;;;4987046;28;20037;-59
2023/03/20 00:16:52;;;;;;;127.22;12.20;;;;;;;;;;4985377;28;20653;-58
2023/03/20 00:19:17;;;;;;;121.47;11.80;;;;;;;;;;4985514;28;20030;-58
2023/03/20 00:21:45;;;;;;;182.83;14.93;;;;;;;;;;4984419;28;20449;-59
2023/03/20 00:24:10;;;;;;;151.85;11.90;;;;;;;;;;4986751;28;20272;-57
2023/03/20 00:26:37;;;;;;;126.13;13.63;;;;;;;;;;4985943;28;20034;-58
2023/03/20 00:29:03;;;;;;;142.60;11.18;;;;;;;;;;4984648;28;20692;-57
2023/03/20 00:31:30;;;;;;;167.77;13.27;;;;;;;;;;4986798;28;20091;-58
2023/03/20 00:33:57;;;;;;;99.05;11.80;;;;;;;;;;4983745;28;20033;-58
2023/03/20 00:36:22;;;;;;;139.30;10.57;;;;;;;;;;4986994;28;20039;-58
2023/03/20 00:38:48;;;;;;;98.40;9.90;;;;;;;;;;4986057;28;20095;-59
2023/03/20 00:41:30;;;;;;;145.80;12.25;;;;;;;;;;4985116;28;20129;-59
2023/03/20 00:43:58;;;;;;;105.95;9.98;;;;;;;;;;4986489;28;20610;-59
2023/03/20 00:46:24;;;;;;;140.32;11.02;;;;;;;;;;4986179;28;20046;-58
2023/03/20 00:48:49;;;;;;;122.38;10.85;;;;;;;;;;4985842;28;20165;-59
2023/03/20 00:51:15;;;;;;;151.30;11.82;;;;;;;;;;4986040;28;20092;-57
2023/03/20 00:53:40;;;;;;;145.60;10.90;;;;;;;;;;4985268;28;20050;-58
2023/03/20 00:56:06;;;;;;;105.72;10.32;;;;;;;;;;4985198;28;20121;-58
2023/03/20 00:58:31;;;;;;;127.95;11.48;;;;;;;;;;4986653;28;20046;-58
2023/03/20 01:00:56;;;;;;;121.38;11.10;;;;;;;;;;4987040;28;20080;-57
2023/03/20 01:03:23;;;;;;;117.82;10.95;;;;;;;;;;4987016;28;20075;-57
2023/03/20 01:05:49;;;;;;;136.65;11.60;;;;;;;;;;4989189;28;20089;-56
2023/03/20 01:08:17;;;;;;;121.35;10.38;;;;;;;;;;4989882;28;20104;-58
2023/03/20 01:10:44;;;;;;;114.35;10.70;;;;;;;;;;4989280;28;20081;-59
2023/03/20 01:13:14;;;;;;;160.23;12.57;;;;;;;;;;4990243;28;20391;-60
2023/03/20 01:15:40;;;;;;;123.15;11.55;;;;;;;;;;4989205;28;20128;-56
2023/03/20 01:18:05;;;;;;;151.50;11.90;;;;;;;;;;4989350;28;20061;-57
2023/03/20 01:20:31;;;;;;;114.65;10.35;;;;;;;;;;4988212;28;20065;-57
2023/03/20 01:22:56;;;;;;;145.45;11.25;;;;;;;;;;4988345;28;20096;-57
2023/03/20 01:25:22;;;;;;;125.25;10.82;;;;;;;;;;4987365;28;20892;-56
2023/03/20 01:27:49;;;;;;;107.78;10.07;;;;;;;;;;4987142;28;20590;-56
2023/03/20 01:30:15;;;;;;;121.65;10.40;;;;;;;;;;4987579;28;20117;-57
2023/03/20 01:32:42;;;;;;;120.82;10.43;;;;;;;;;;4988683;28;20080;-58
2023/03/20 01:35:10;;;;;;;93.72;8.57;;;;;;;;;;4990462;28;20107;-57
2023/03/20 01:37:36;;;;;;;127.95;10.60;;;;;;;;;;4988663;28;20030;-57
2023/03/20 01:40:01;;;;;;;91.43;8.87;;;;;;;;;;4990183;28;20033;-57
2023/03/20 01:42:27;;;;;;;98.13;9.38;;;;;;;;;;4988417;28;20257;-57
2023/03/20 01:44:52;;;;;;;110.55;9.82;;;;;;;;;;4988477;28;20692;-56
2023/03/20 01:47:20;;;;;;;113.88;10.40;;;;;;;;;;4988803;28;20034;-56
2023/03/20 01:50:04;;;;;;;123.93;10.23;;;;;;;;;;4991144;28;20040;-58
2023/03/20 01:52:30;;;;;;;109.20;9.73;;;;;;;;;;4988799;28;20592;-58
2023/03/20 01:54:55;;;;;;;154.80;11.50;;;;;;;;;;4987337;28;20489;-58
2023/03/20 01:57:23;;;;;;;109.53;9.98;;;;;;;;;;4986629;28;20193;-59
2023/03/20 01:59:58;;;;;;;96.70;9.98;;;;;;;;;;4989192;28;20026;-57
2023/03/20 02:02:25;;;;;;;109.72;10.52;;;;;;;;;;4988831;28;20178;-58
2023/03/20 02:04:52;;;;;;;107.15;10.98;;;;;;;;;;4988876;28;20049;-57
2023/03/20 02:07:19;;;;;;;130.75;11.07;;;;;;;;;;4989653;28;20648;-57
2023/03/20 02:09:45;;;;;;;138.00;11.77;;;;;;;;;;4988798;28;20023;-56
2023/03/20 02:12:11;;;;;;;132.10;11.32;;;;;;;;;;4987099;28;20030;-57
2023/03/20 02:14:36;;;;;;;89.65;9.45;;;;;;;;;;4990225;28;20030;-56
2023/03/20 02:17:07;;;;;;;107.13;10.27;;;;;;;;;;4989055;28;20563;-58
2023/03/20 02:19:48;;;;;;;123.07;10.80;;;;;;;;;;4989679;28;20439;-57
2023/03/20 02:22:32;;;;;;;95.90;9.77;;;;;;;;;;4987715;28;20041;-57
2023/03/20 02:25:14;;;;;;;128.52;11.27;;;;;;;;;;4988796;28;20793;-57
2023/03/20 02:27:45;;;;;;;155.70;12.18;;;;;;;;;;4985669;28;20085;-57
2023/03/20 02:30:11;;;;;;;115.97;10.77;;;;;;;;;;4988494;28;20024;-58
2023/03/20 02:32:51;;;;;;;113.40;11.13;;;;;;;;;;4986383;28;20257;-58
2023/03/20 02:35:46;;;;;;;106.30;9.93;;;;;;;;;;4986823;28;20112;-57
2023/03/20 02:38:20;;;;;;;117.45;10.93;;;;;;;;;;4987432;28;20030;-57
2023/03/20 02:40:57;;;;;;;116.25;10.73;;;;;;;;;;4987482;28;20813;-57
2023/03/20 02:43:35;;;;;;;114.80;11.38;;;;;;;;;;4987158;28;20687;-56
2023/03/20 02:46:12;;;;;;;132.07;10.88;;;;;;;;;;4987924;28;20033;-58
2023/03/20 02:48:46;;;;;;;101.00;10.63;;;;;;;;;;4989409;28;20022;-56
2023/03/20 02:51:26;;;;;;;148.02;11.73;;;;;;;;;;4987693;28;20070;-57
2023/03/20 02:53:57;;;;;;;143.25;12.18;;;;;;;;;;4985824;28;20076;-58
2023/03/20 02:56:29;;;;;;;128.45;11.73;;;;;;;;;;4987504;28;20042;-56
2023/03/20 02:59:14;;;;;;;87.65;9.80;;;;;;;;;;4986428;28;20115;-60
2023/03/20 03:01:45;;;;;;;141.65;11.82;;;;;;;;;;4987996;28;20030;-57
2023/03/20 03:04:16;;;;;;;110.35;10.45;;;;;;;;;;4986917;28;20018;-57
2023/03/20 03:06:43;;;;;;;142.43;11.95;;;;;;;;;;4986503;28;20133;-58
2023/03/20 03:09:23;;;;;;;109.80;10.13;;;;;;;;;;4987335;28;20351;-56
2023/03/20 03:12:09;;;;;;;127.82;11.15;;;;;;;;;;4983060;28;20068;-58
2023/03/20 03:14:37;;;;;;;116.05;10.45;;;;;;;;;;4983868;28;20045;-58
2023/03/20 03:17:03;;;;;;;94.47;10.32;;;;;;;;;;4989713;28;20034;-58
2023/03/20 03:19:29;;;;;;;115.72;10.88;;;;;;;;;;4987805;28;20054;-56
2023/03/20 03:21:54;;;;;;;136.95;11.75;;;;;;;;;;4985661;28;20061;-58
2023/03/20 03:24:28;;;;;;;131.18;11.48;;;;;;;;;;4987610;28;20081;-57
2023/03/20 03:26:54;;;;;;;119.50;10.77;;;;;;;;;;4984223;28;20057;-56
2023/03/20 03:29:21;;;;;;;118.88;10.63;;;;;;;;;;4985881;28;20463;-57
2023/03/20 03:31:47;;;;;;;107.15;10.25;;;;;;;;;;4987034;28;20108;-58
2023/03/20 03:34:14;;;;;;;127.78;11.60;;;;;;;;;;4987200;28;20439;-58
2023/03/20 03:36:42;;;;;;;111.53;10.57;;;;;;;;;;4986690;28;20155;-59
2023/03/20 03:39:26;;;;;;;112.18;10.35;;;;;;;;;;4986284;28;20032;-56
2023/03/20 03:41:55;;;;;;;139.60;11.75;;;;;;;;;;4984462;28;20042;-57
2023/03/20 03:44:23;;;;;;;140.13;11.52;;;;;;;;;;4985402;28;20020;-57
2023/03/20 03:46:49;;;;;;;111.05;10.48;;;;;;;;;;4985113;28;20042;-56
2023/03/20 03:49:17;;;;;;;120.27;11.07;;;;;;;;;;4989194;28;20648;-58
2023/03/20 03:51:44;;;;;;;134.32;11.05;;;;;;;;;;4985681;28;20323;-57
2023/03/20 03:54:18;;;;;;;121.47;10.60;;;;;;;;;;4987711;28;20423;-58
2023/03/20 03:56:46;;;;;;;129.30;11.20;;;;;;;;;;4986584;28;20137;-56
2023/03/20 03:59:26;;;;;;;96.65;10.50;;;;;;;;;;4986107;28;20022;-56
2023/03/20 04:01:53;;;;;;;163.73;12.68;;;;;;;;;;4985546;28;20404;-56
2023/03/20 04:04:19;;;;;;;111.10;11.73;;;;;;;;;;4985386;28;20013;-58
2023/03/20 04:06:44;;;;;;;130.93;12.18;;;;;;;;;;4986010;28;20056;-57
2023/03/20 04:09:10;;;;;;;147.53;12.73;;;;;;;;;;4985605;28;20383;-58
2023/03/20 04:11:35;;;;;;;115.30;11.65;;;;;;;;;;4984315;28;20640;-57
2023/03/20 04:14:01;;;;;;;169.68;14.02;;;;;;;;;;4985930;28;20050;-58
2023/03/20 04:16:26;;;;;;;116.05;9.75;;;;;;;;;;4985065;28;20609;-56
2023/03/20 04:18:52;;;;;;;154.70;12.25;;;;;;;;;;4984718;28;20066;-57
2023/03/20 04:21:17;;;;;;;176.52;12.90;;;;;;;;;;4987471;28;20496;-58
2023/03/20 04:23:43;;;;;;;109.07;10.35;;;;;;;;;;4985630;28;20096;-58
2023/03/20 04:26:08;;;;;;;99.60;10.18;;;;;;;;;;4987423;28;20133;-56
2023/03/20 04:28:33;;;;;;;139.15;12.07;;;;;;;;;;4987883;28;20030;-56
2023/03/20 04:30:59;;;;;;;96.97;9.90;;;;;;;;;;4986128;28;20627;-58
2023/03/20 04:33:25;;;;;;;144.93;11.80;;;;;;;;;;4985564;28;20277;-58
2023/03/20 04:35:50;;;;;;;135.55;11.57;;;;;;;;;;4985398;28;20296;-57
2023/03/20 04:38:16;;;;;;;114.50;11.85;;;;;;;;;;4988437;28;20106;-58
2023/03/20 04:40:42;;;;;;;123.55;11.60;;;;;;;;;;4988021;28;20038;-57
2023/03/20 04:43:07;;;;;;;110.63;11.32;;;;;;;;;;4989866;28;20693;-57
2023/03/20 04:45:33;;;;;;;112.80;11.50;;;;;;;;;;4990207;28;20047;-58
2023/03/20 04:47:58;;;;;;;124.77;11.57;;;;;;;;;;4991039;28;20530;-58
2023/03/20 04:50:23;;;;;;;112.65;11.50;;;;;;;;;;4988782;28;20605;-57
2023/03/20 04:52:48;;;;;;;130.73;11.40;;;;;;;;;;4989975;28;20028;-56
2023/03/20 04:55:14;;;;;;;129.07;12.93;;;;;;;;;;4991428;28;20496;-55
2023/03/20 04:57:40;;;;;;;97.07;11.07;;;;;;;;;;4989992;28;20015;-57
2023/03/20 05:00:05;;;;;;;119.23;11.57;;;;;;;;;;4990147;28;20026;-58
2023/03/20 05:02:31;;;;;;;101.13;11.85;;;;;;;;;;4990894;28;20260;-57
2023/03/20 05:04:56;;;;;;;96.83;10.83;;;;;;;;;;4990063;28;20495;-57
2023/03/20 05:07:21;;;;;;;152.70;13.35;;;;;;;;;;4988759;28;20706;-57
2023/03/20 05:09:46;;;;;;;122.28;11.52;;;;;;;;;;4991171;28;20029;-57
2023/03/20 05:12:12;;;;;;;116.10;12.07;;;;;;;;;;4987692;28;20037;-56
2023/03/20 05:14:37;;;;;;;131.40;12.13;;;;;;;;;;4988820;28;20442;-58
2023/03/20 05:17:02;;;;;;;128.95;12.23;;;;;;;;;;4989993;28;20789;-56
2023/03/20 05:19:27;;;;;;;121.73;11.93;;;;;;;;;;4989089;28;20029;-58
2023/03/20 05:21:52;;;;;;;114.60;12.33;;;;;;;;;;4988128;28;20604;-57
2023/03/20 05:24:18;;;;;;;128.82;12.05;;;;;;;;;;4989567;28;20257;-56
2023/03/20 05:26:43;;;;;;;107.80;10.73;;;;;;;;;;4990077;28;20039;-57
2023/03/20 05:29:08;;;;;;;114.80;11.27;;;;;;;;;;4989638;28;20033;-56
2023/03/20 05:31:34;;;;;;;170.30;13.88;;;;;;;;;;4987028;28;20269;-57
2023/03/20 05:33:59;;;;;;;134.27;11.77;;;;;;;;;;4990501;28;20038;-58
2023/03/20 05:36:24;;;;;;;98.97;11.88;;;;;;;;;;4990368;28;20049;-58
2023/03/20 05:38:49;;;;;;;130.63;12.47;;;;;;;;;;4989214;28;20053;-58
2023/03/20 05:41:15;;;;;;;163.63;13.43;;;;;;;;;;4989082;28;20297;-58
2023/03/20 05:43:40;;;;;;;120.00;13.40;;;;;;;;;;4989732;28;20369;-56
2023/03/20 05:46:05;;;;;;;124.13;12.93;;;;;;;;;;4990817;28;20424;-57
2023/03/20 05:48:31;;;;;;;101.25;10.77;;;;;;;;;;4989959;28;21231;-57
2023/03/20 05:50:56;;;;;;;129.10;11.57;;;;;;;;;;4987997;28;20030;-57
2023/03/20 05:53:21;;;;;;;131.77;12.43;;;;;;;;;;4990397;28;20444;-55
2023/03/20 05:55:46;;;;;;;114.87;11.63;;;;;;;;;;4990347;28;20627;-56
2023/03/20 05:58:12;;;;;;;126.00;14.48;;;;;;;;;;4990205;28;20416;-57
2023/03/20 06:00:37;;;;;;;150.77;15.82;;;;;;;;;;4989781;28;20102;-58
2023/03/20 06:03:03;;;;;;;124.68;14.15;;;;;;;;;;4987519;28;20392;-58
2023/03/20 06:05:28;;;;;;;105.10;13.85;;;;;;;;;;4989311;28;20085;-56
2023/03/20 06:07:54;;;;;;;128.35;14.40;;;;;;;;;;4987655;28;20104;-56
2023/03/20 06:10:19;;;;;;;136.88;14.77;;;;;;;;;;4989243;28;20033;-57
2023/03/20 06:12:45;;;;;;;126.63;15.07;;;;;;;;;;4988052;28;20061;-57
2023/03/20 06:15:10;;;;;;;103.18;14.85;;;;;;;;;;4987436;28;20030;-56
2023/03/20 06:17:36;;;;;;;108.95;15.65;;;;;;;;;;4988761;28;20080;-57
2023/03/20 06:20:01;;;;;;;139.53;15.70;;;;;;;;;;4989179;28;20076;-57
2023/03/20 06:22:26;;;;;;;125.88;14.68;;;;;;;;;;4989550;28;20262;-58
2023/03/20 06:24:51;;;;;;;120.07;13.60;;;;;;;;;;4987755;28;20567;-57
2023/03/20 06:27:17;;;;;;;115.15;10.38;;;;;;;;;;4988222;28;20342;-58
2023/03/20 06:29:42;;;;;;;108.50;12.05;;;;;;;;;;4990791;28;20057;-55
2023/03/20 06:32:08;;;;;;;132.90;13.17;;;;;;;;;;4986649;28;20634;-58
2023/03/20 06:34:33;;;;;;;118.78;12.77;;;;;;;;;;4988386;28;20803;-56
2023/03/20 06:36:58;;;;;;;121.50;13.77;;;;;;;;;;4987406;28;20046;-58
2023/03/20 06:39:23;;;;;;;141.20;14.20;;;;;;;;;;4987586;28;20285;-58
2023/03/20 06:41:49;;;;;;;130.57;13.95;;;;;;;;;;4987520;28;20042;-59
2023/03/20 06:44:14;;;;;;;90.33;12.67;;;;;;;;;;4987685;28;20046;-58
2023/03/20 06:46:40;;;;;;;131.75;14.43;;;;;;;;;;4986176;28;20288;-58
2023/03/20 06:49:05;;;;;;;112.43;15.05;;;;;;;;;;4988930;28;20677;-59
2023/03/20 06:51:30;;;;;;;158.02;16.33;;;;;;;;;;4988363;28;20389;-57
2023/03/20 06:53:55;;;;;;;131.43;15.35;;;;;;;;;;4986708;28;20018;-57
2023/03/20 06:56:20;;;;;;;120.50;15.55;;;;;;;;;;4987374;28;20053;-55
2023/03/20 06:58:46;;;;;;;146.13;16.43;;;;;;;;;;4986927;28;20034;-58
2023/03/20 07:01:12;;;;;;;112.03;14.37;;;;;;;;;;4988231;28;21114;-55
2023/03/20 07:03:38;;;;;;;117.38;17.08;;;;;;;;;;4988426;28;20269;-58
2023/03/20 07:06:05;;;;;;;110.03;16.50;;;;;;;;;;4986758;28;20035;-56
2023/03/20 07:08:30;;;;;;;148.93;18.50;;;;;;;;;;4987601;28;20030;-56
2023/03/20 07:10:56;;;;;;;136.32;17.95;;;;;;;;;;4986344;28;20044;-55
2023/03/20 07:13:21;;;;;;;147.52;17.23;;;;;;;;;;4986782;28;20029;-58
2023/03/20 07:15:46;;;;;;;117.50;17.20;;;;;;;;;;4988503;28;20038;-57
2023/03/20 07:18:11;;;;;;;142.37;15.70;;;;;;;;;;4987361;28;20311;-56
2023/03/20 07:20:36;;;;;;;146.60;16.67;;;;;;;;;;4986806;28;20270;-58
2023/03/20 07:23:02;;;;;;;105.93;14.77;;;;;;;;;;4985922;28;20261;-58
2023/03/20 07:25:27;;;;;;;131.82;15.93;;;;;;;;;;4986173;28;20273;-58
2023/03/20 07:27:53;;;;;;;139.38;16.45;;;;;;;;;;4985610;28;20036;-57
2023/03/20 07:30:18;;;;;;;126.88;14.73;;;;;;;;;;4987121;28;20026;-58
2023/03/20 07:32:44;;;;;;;163.52;16.63;;;;;;;;;;4987254;28;20049;-57
2023/03/20 07:35:09;;;;;;;116.10;15.85;;;;;;;;;;4988046;28;20405;-58
2023/03/20 07:37:34;;;;;;;138.55;17.20;;;;;;;;;;4987850;28;20026;-58
2023/03/20 07:40:00;;;;;;;131.70;16.27;;;;;;;;;;4987033;28;20033;-58
2023/03/20 07:42:25;;;;;;;99.43;14.25;;;;;;;;;;4986556;28;20277;-58
2023/03/20 07:44:51;;;;;;;148.73;16.92;;;;;;;;;;4988263;28;20022;-56
2023/03/20 07:47:16;;;;;;;149.98;17.55;;;;;;;;;;4985611;28;20122;-56
2023/03/20 07:49:42;;;;;;;117.60;16.98;;;;;;;;;;4986804;28;20443;-56
2023/03/20 07:52:07;;;;;;;135.63;17.57;;;;;;;;;;4987147;28;20572;-58
2023/03/20 07:54:33;;;;;;;101.60;15.70;;;;;;;;;;4987864;28;20261;-57
2023/03/20 07:56:58;;;;;;;131.00;16.15;;;;;;;;;;4987712;28;20518;-59
2023/03/20 07:59:24;;;;;;;146.48;17.67;;;;;;;;;;4986892;28;20030;-57
2023/03/20 08:01:49;;;;;;;118.32;19.35;;;;;;;;;;4986123;28;20139;-57
2023/03/20 08:04:18;;;;;;;153.95;17.35;;;;;;;;;;4986440;28;20029;-57
2023/03/20 08:06:43;;;;;;;139.77;16.85;;;;;;;;;;4985254;28;20508;-58
2023/03/20 08:09:08;;;;;;;155.25;20.10;;;;;;;;;;4986055;28;20067;-57
2023/03/20 08:11:34;;;;;;;165.95;17.83;;;;;;;;;;4985149;28;20205;-56
2023/03/20 08:13:59;;;;;;;114.53;15.55;;;;;;;;;;4986352;28;20518;-56
2023/03/20 08:16:24;;;;;;;125.28;14.02;;;;;;;;;;4986877;28;20041;-57
2023/03/20 08:18:51;;;;;;;144.57;15.27;;;;;;;;;;4987452;28;20103;-58
2023/03/20 08:21:17;;;;;;;128.25;15.05;;;;;;;;;;4985380;28;20034;-57
2023/03/20 08:23:42;;;;;;;134.40;15.57;;;;;;;;;;4986402;28;20045;-57
2023/03/20 08:26:07;;;;;;;118.17;14.37;;;;;;;;;;4985790;28;20034;-57
2023/03/20 08:28:33;;;;;;;88.90;13.57;;;;;;;;;;4987414;28;20265;-56
2023/03/20 08:30:58;;;;;;;131.05;14.80;;;;;;;;;;4985393;28;20527;-57
2023/03/20 08:33:23;;;;;;;109.15;13.90;;;;;;;;;;4985578;28;20034;-58
2023/03/20 08:35:57;;;;;;;129.23;13.90;;;;;;;;;;4985733;28;20883;-56
2023/03/20 08:38:23;;;;;;;90.72;11.45;;;;;;;;;;4986402;28;20715;-58
2023/03/20 08:40:48;;;;;;;101.75;12.15;;;;;;;;;;4985073;28;20113;-58
2023/03/20 08:43:14;;;;;;;120.80;12.80;;;;;;;;;;4985783;28;20026;-57
2023/03/20 08:45:39;;;;;;;110.03;12.45;;;;;;;;;;4987363;28;20761;-58
2023/03/20 08:48:04;;;;;;;112.63;12.57;;;;;;;;;;4984772;28;20065;-58
2023/03/20 08:50:30;;;;;;;116.57;12.07;;;;;;;;;;4987542;28;20026;-59
2023/03/20 08:52:55;;;;;;;87.10;11.13;;;;;;;;;;4986565;28;20274;-58
2023/03/20 08:55:20;;;;;;;145.65;13.65;;;;;;;;;;4985468;28;20026;-58
2023/03/20 08:57:46;;;;;;;97.60;10.53;;;;;;;;;;4985754;28;20029;-58
2023/03/20 09:00:13;;;;;;;85.72;9.52;;;;;;;;;;4984951;28;20253;-58
2023/03/20 09:02:38;;;;;;;127.47;10.63;;;;;;;;;;4987437;28;20029;-57
2023/03/20 09:05:04;;;;;;;105.00;9.77;;;;;;;;;;4986542;28;20022;-56
2023/03/20 09:07:29;;;;;;;122.93;11.65;;;;;;;;;;4985425;28;20495;-58
2023/03/20 09:09:54;;;;;;;113.32;11.10;;;;;;;;;;4987002;28;20038;-57
2023/03/20 09:12:19;;;;;;;91.67;9.97;;;;;;;;;;4984503;28;20317;-56
2023/03/20 09:14:45;;;;;;;124.95;10.98;;;;;;;;;;4988462;28;20364;-57
2023/03/20 09:17:10;;;;;;;89.70;8.88;;;;;;;;;;4983275;28;20327;-57
2023/03/20 09:19:38;;;;;;;109.20;8.70;;;;;;;;;;4987910;28;20423;-57
2023/03/20 09:22:04;;;;;;;98.55;8.65;;;;;;;;;;4985639;28;20270;-59
2023/03/20 09:24:30;;;;;;;100.78;7.70;;;;;;;;;;4985455;28;20578;-58
2023/03/20 09:26:55;;;;;;;166.02;11.15;;;;;;;;;;4983304;28;20081;-58
2023/03/20 09:29:20;;;;;;;95.17;8.27;;;;;;;;;;4988098;28;20021;-58
2023/03/20 09:31:45;;;;;;;102.20;7.53;;;;;;;;;;4988762;28;20280;-58
2023/03/20 09:34:11;;;;;;;130.80;9.00;;;;;;;;;;4989221;28;20399;-57
2023/03/20 09:36:36;;;;;;;88.37;6.97;;;;;;;;;;4990393;28;20332;-57
2023/03/20 09:39:01;;;;;;;92.10;7.07;;;;;;;;;;4988590;28;20287;-58
2023/03/20 09:41:27;;;;;;;153.57;9.20;;;;;;;;;;4988480;28;20299;-57
2023/03/20 09:43:58;;;;;;;133.98;8.27;;;;;;;;;;4987795;28;20097;-58
2023/03/20 09:46:30;;;;;;;102.90;7.32;;;;;;;;;;4987597;28;20042;-58
2023/03/20 09:49:06;;;;;;;86.80;6.78;;;;;;;;;;4989511;28;20518;-58
2023/03/20 09:51:42;;;;;;;174.38;10.00;;;;;;;;;;4987070;28;20037;-58
2023/03/20 09:54:36;;;;;;;102.68;7.57;;;;;;;;;;4987096;28;20103;-59
2023/03/20 09:57:02;;;;;;;103.03;7.13;;;;;;;;;;4983169;28;20097;-57
2023/03/20 09:59:29;;;;;;;102.70;7.10;;;;;;;;;;4986854;28;20026;-59
2023/03/20 10:01:54;;;;;;;175.15;10.63;;;;;;;;;;4983780;28;20487;-57
2023/03/20 10:04:20;;;;;;;97.20;6.90;;;;;;;;;;4989288;28;20616;-61
2023/03/20 10:06:46;;;;;;;286.95;14.25;;;;;;;;;;4984008;28;20038;-58
2023/03/20 10:09:21;;;;;;;122.00;7.90;;;;;;;;;;4983826;28;20026;-59
2023/03/20 10:11:55;;;;;;;162.95;9.13;;;;;;;;;;4982776;28;20042;-56
2023/03/20 10:14:26;;;;;;;142.23;8.32;;;;;;;;;;4985405;28;20133;-58
2023/03/20 10:16:51;;;;;;;92.15;6.53;;;;;;;;;;4984179;28;20451;-59
2023/03/20 10:19:25;;;;;;;118.43;7.97;;;;;;;;;;4984844;28;20702;-57
2023/03/20 10:21:56;;;;;;;132.90;8.30;;;;;;;;;;4985116;28;20307;-57
2023/03/20 10:24:46;;;;;;;137.48;8.10;;;;;;;;;;4984453;28;20021;-59
2023/03/20 10:27:25;;;;;;;122.18;7.85;;;;;;;;;;4986920;28;20034;-58
2023/03/20 10:29:53;;;;;;;151.00;8.80;;;;;;;;;;4986748;28;20023;-57
2023/03/20 10:32:25;;;;;;;149.32;8.45;;;;;;;;;;4984739;28;20027;-58
2023/03/20 10:35:07;;;;;;;98.75;6.80;;;;;;;;;;4984263;28;20049;-59
2023/03/20 10:38:05;;;;;;;150.20;8.63;;;;;;;;;;4983297;28;20299;-56
2023/03/20 10:40:37;;;;;;;149.30;8.27;;;;;;;;;;4966738;28;20030;-58
2023/03/20 10:43:10;;;;;;;157.32;8.63;;;;;;;;;;4985485;28;20018;-57
2023/03/20 10:45:39;;;;;;;105.22;6.75;;;;;;;;;;4985773;28;20034;-59
2023/03/20 10:48:09;;;;;;;128.05;7.40;;;;;;;;;;4986630;28;20022;-56
2023/03/20 10:50:39;;;;;;;84.82;6.38;;;;;;;;;;4985177;28;20037;-57
2023/03/20 10:53:05;;;;;;;182.70;9.85;;;;;;;;;;4986343;28;20038;-58
2023/03/20 10:55:33;;;;;;;112.32;7.03;;;;;;;;;;4984151;28;20279;-58
2023/03/20 10:58:02;;;;;;;126.38;7.22;;;;;;;;;;4985322;28;20038;-58
2023/03/20 11:00:27;;;;;;;132.00;7.90;;;;;;;;;;4985994;28;20018;-59
2023/03/20 11:02:53;;;;;;;136.80;8.23;;;;;;;;;;4986812;28;20030;-58
2023/03/20 11:05:18;;;;;;;158.57;8.77;;;;;;;;;;4983473;28;20057;-57
2023/03/20 11:07:45;;;;;;;120.57;7.07;;;;;;;;;;4984628;28;20026;-57
2023/03/20 11:10:12;;;;;;;137.57;7.32;;;;;;;;;;4983524;28;20041;-59
2023/03/20 11:12:40;;;;;;;156.38;8.55;;;;;;;;;;4983808;28;20022;-60
2023/03/20 11:15:19;;;;;;;163.48;8.30;;;;;;;;;;4985488;28;20018;-58
2023/03/20 11:18:13;;;;;;;106.30;6.90;;;;;;;;;;4984965;28;20443;-56
2023/03/20 11:20:44;;;;;;;118.43;7.40;;;;;;;;;;4982668;28;20037;-59
2023/03/20 11:23:13;;;;;;;108.25;6.75;;;;;;;;;;4985220;28;20038;-57
2023/03/20 11:25:46;;;;;;;113.15;6.82;;;;;;;;;;4986055;28;20042;-59
2023/03/20 11:28:19;;;;;;;153.95;8.15;;;;;;;;;;4986935;28;20037;-57
2023/03/20 11:30:45;;;;;;;118.65;6.97;;;;;;;;;;4985471;28;20162;-57
2023/03/20 11:33:11;;;;;;;95.57;5.97;;;;;;;;;;4985934;28;20556;-57
2023/03/20 11:35:36;;;;;;;121.80;7.20;;;;;;;;;;4983684;28;20034;-55
2023/03/20 11:38:09;;;;;;;127.25;7.70;;;;;;;;;;4983948;28;20064;-57
2023/03/20 11:40:34;;;;;;;96.95;7.15;;;;;;;;;;4985970;28;20088;-57
2023/03/20 11:42:59;;;;;;;154.77;8.50;;;;;;;;;;4986640;28;20034;-58
2023/03/20 11:45:26;;;;;;;84.43;6.00;;;;;;;;;;4986260;28;20113;-56
2023/03/20 11:47:52;;;;;;;83.60;5.95;;;;;;;;;;4988235;28;20121;-57
2023/03/20 11:50:34;;;;;;;136.18;7.70;;;;;;;;;;4987587;28;20061;-56
2023/03/20 11:53:16;;;;;;;134.63;8.23;;;;;;;;;;4985437;28;20021;-57
2023/03/20 11:55:42;;;;;;;131.20;7.70;;;;;;;;;;4983521;28;20582;-56
2023/03/20 11:58:14;;;;;;;109.45;6.47;;;;;;;;;;4984850;28;20408;-57
2023/03/20 12:00:41;;;;;;;129.47;7.30;;;;;;;;;;4984638;28;20030;-58
2023/03/20 12:03:25;;;;;;;93.97;6.03;;;;;;;;;;4986256;28;20030;-57
2023/03/20 12:05:51;;;;;;;95.10;6.20;;;;;;;;;;4986941;28;20034;-58
2023/03/20 12:08:23;;;;;;;102.38;6.47;;;;;;;;;;4985578;28;20053;-59
2023/03/20 12:10:58;;;;;;;133.13;7.72;;;;;;;;;;4985739;28;20074;-58
2023/03/20 12:13:23;;;;;;;81.57;5.70;;;;;;;;;;4984095;28;20024;-60
2023/03/20 12:15:51;;;;;;;102.70;6.70;;;;;;;;;;4984467;28;20308;-59
2023/03/20 12:18:34;;;;;;;80.03;5.93;;;;;;;;;;4982936;28;20022;-59
2023/03/20 12:21:03;;;;;;;123.03;7.30;;;;;;;;;;4986075;28;20361;-58
2023/03/20 12:23:43;;;;;;;83.10;6.15;;;;;;;;;;4985656;28;20018;-59
2023/03/20 12:26:19;;;;;;;124.57;7.38;;;;;;;;;;4985873;28;20036;-58
2023/03/20 12:28:45;;;;;;;97.20;6.72;;;;;;;;;;4986633;28;20032;-58
2023/03/20 12:31:21;;;;;;;157.95;8.80;;;;;;;;;;4987056;28;20038;-57
2023/03/20 12:34:01;;;;;;;98.95;6.47;;;;;;;;;;4985173;28;20038;-58
2023/03/20 12:36:34;;;;;;;114.85;7.63;;;;;;;;;;4987055;28;20060;-58
2023/03/20 12:39:04;;;;;;;99.60;6.90;;;;;;;;;;4987584;28;20021;-59
2023/03/20 12:41:37;;;;;;;192.80;10.45;;;;;;;;;;4984111;28;20568;-58
2023/03/20 12:44:18;;;;;;;126.80;8.20;;;;;;;;;;4983964;28;20017;-59
2023/03/20 12:46:49;;;;;;;130.48;8.00;;;;;;;;;;4984405;28;20034;-59
2023/03/20 12:49:30;;;;;;;108.68;7.13;;;;;;;;;;4985849;28;20033;-60
2023/03/20 12:51:55;;;;;;;105.38;7.15;;;;;;;;;;4983827;28;20031;-59
2023/03/20 12:54:32;;;;;;;95.63;7.03;;;;;;;;;;4985961;28;20025;-58
2023/03/20 12:56:58;;;;;;;107.72;7.15;;;;;;;;;;4986095;28;20169;-57
2023/03/20 12:59:41;;;;;;;97.50;6.83;;;;;;;;;;4987182;28;20026;-58
2023/03/20 13:02:10;;;;;;;101.32;7.05;;;;;;;;;;4988846;28;20053;-57
2023/03/20 13:04:38;;;;;;;82.68;6.45;;;;;;;;;;4992569;28;21092;-57
2023/03/20 13:07:16;;;;;;;113.13;6.85;;;;;;;;;;4990716;28;20037;-57
2023/03/20 13:09:47;;;;;;;97.90;6.68;;;;;;;;;;4990283;28;20547;-59
2023/03/20 13:12:25;;;;;;;127.07;8.00;;;;;;;;;;4989128;28;20048;-59
2023/03/20 13:15:09;;;;;;;95.15;6.82;;;;;;;;;;4992797;28;20028;-58
2023/03/20 13:17:34;;;;;;;105.97;7.05;;;;;;;;;;4987762;28;20076;-57
2023/03/20 13:20:18;;;;;;;109.68;7.45;;;;;;;;;;4988671;28;20101;-57
2023/03/20 13:22:52;;;;;;;89.60;6.53;;;;;;;;;;4991112;28;20041;-57
2023/03/20 13:25:26;;;;;;;99.88;6.60;;;;;;;;;;4989529;28;20022;-57
2023/03/20 13:27:56;;;;;;;98.00;6.40;;;;;;;;;;4990273;28;20022;-58
2023/03/20 13:30:24;;;;;;;110.55;7.28;;;;;;;;;;4989612;28;20026;-58
2023/03/20 13:32:49;;;;;;;113.45;7.63;;;;;;;;;;4989051;28;20032;-57
2023/03/20 13:35:15;;;;;;;99.47;6.60;;;;;;;;;;4988299;28;20344;-59
2023/03/20 13:37:47;;;;;;;85.38;6.65;;;;;;;;;;4990314;28;20400;-59
2023/03/20 13:40:12;;;;;;;;;;;;;;;;;;4990492;28;20121;-58
2023/03/20 13:42:40;;;;;;;113.05;7.50;;;;;;;;;;4988025;28;20623;-58
2023/03/20 13:45:26;;;;;;;129.65;7.80;;;;;;;;;;4986694;28;20019;-58
2023/03/20 13:47:52;;;;;;;89.03;6.90;;;;;;;;;;4989929;28;20519;-59
2023/03/20 13:50:34;;;;;;;89.72;6.65;;;;;;;;;;4987523;28;20157;-58
2023/03/20 13:53:11;;;;;;;114.07;7.18;;;;;;;;;;4989165;28;20646;-59
2023/03/20 13:55:39;;;;;;;86.70;6.13;;;;;;;;;;4990265;28;20037;-57
2023/03/20 13:58:31;;;;;;;98.20;6.60;;;;;;;;;;4990708;28;20022;-58
2023/03/20 14:00:56;;;;;;;;;;;;;;;;;;4990336;28;20587;-58
2023/03/20 14:03:24;;;;;;;90.82;6.00;;;;;;;;;;4990686;28;20484;-58
2023/03/20 14:05:50;;;;;;;119.85;7.35;;;;;;;;;;4987086;28;20045;-57
2023/03/20 14:08:37;;;;;;;91.22;6.28;;;;;;;;;;4988629;28;20022;-59
2023/03/20 14:11:05;;;;;;;133.07;8.18;;;;;;;;;;4987764;28;20451;-59
2023/03/20 14:13:31;;;;;;;118.32;8.10;;;;;;;;;;4989287;28;20468;-57
2023/03/20 14:16:00;;;;;;;116.47;7.15;;;;;;;;;;4988408;28;20038;-57
2023/03/20 14:18:25;;;;;;;96.78;6.70;;;;;;;;;;4988527;28;20038;-57
2023/03/20 14:20:56;;;;;;;230.27;11.57;;;;;;;;;;4981236;28;20061;-55